Terminal Aerodrome Forecast
Issued by NWS

Home | Current Version | Previous Version | Text Only | Print | Product List | Glossary On
Versions: 1 2 3 4 5 6 7 8 9 10 11 12
436
FTUS43 KAPX 242326
TAFAPN
TAF
KAPN 242326Z 2500/2524 11008KT P6SM BKN200
     FM250300 12007KT P6SM SCT200 WS015/15035KT
     FM251000 14007KT P6SM BKN090 WS015/17030KT
     FM251200 14008KT P6SM BKN090
     FM251400 14009KT P6SM BKN050=

USA.gov is the U.S. government's official web portal to all federal, state and local government web resources and services.